Waimes, Belgium
Current Conditions -  °F | °C
As of 10:46 PM on Friday 28 Nov 2014 (Local Time) from EBLB Reporting Station
Clear Clear  
Wind Chill: 32°   Ceiling: Unl
Heat Index: 32°   Visibility: 6mi
Dew Point: 32°   Wind: 2mph
Humidity: 100%   Direction: NA
Pressure: 29.83"   Gusts: NA
Location:  50.41°N, 6.11°E
Report Text: EBLB 282146Z AUTO VRB02KT 9999 NCD 00/M00 Q1010 BLU
Loading
Personal Weather Stations






























Interactive Weather Map New forecast layout! Learn more

10-Day Weather Forecast

Advertisements
Track Severe Weather on mobile